createdAt,value
2023-02-05T00:01:08.885Z,33.90
2023-02-05T00:03:42.788Z,34.70
2023-02-05T00:06:10.891Z,40.70
2023-02-05T00:08:38.775Z,40.10
2023-02-05T00:11:10.003Z,42.20
2023-02-05T00:13:41.841Z,39.20
2023-02-05T00:16:17.119Z,32.60
2023-02-05T00:18:46.002Z,41.00
2023-02-05T00:21:14.853Z,42.40
2023-02-05T00:23:43.283Z,42.50
2023-02-05T00:26:13.510Z,41.00
2023-02-05T00:28:42.593Z,35.70
2023-02-05T00:31:13.799Z,40.20
2023-02-05T00:33:42.868Z,37.50
2023-02-05T00:36:12.947Z,37.20
2023-02-05T00:38:43.282Z,35.90
2023-02-05T00:41:12.193Z,30.90
2023-02-05T00:43:41.498Z,41.90
2023-02-05T00:46:10.816Z,37.80
2023-02-05T00:48:40.111Z,33.70
2023-02-05T00:51:10.708Z,36.00
2023-02-05T00:53:38.761Z,35.90
2023-02-05T00:56:07.061Z,36.70
2023-02-05T00:58:36.951Z,37.00
2023-02-05T01:01:06.152Z,36.30
2023-02-05T01:03:34.580Z,31.50
2023-02-05T01:06:03.511Z,38.50
2023-02-05T01:08:32.101Z,34.90
2023-02-05T01:11:01.361Z,31.60
2023-02-05T01:13:29.402Z,32.10
2023-02-05T01:15:57.486Z,35.30
2023-02-05T01:18:25.549Z,32.80
2023-02-05T01:20:53.632Z,30.30
2023-02-05T01:23:21.874Z,29.00
2023-02-05T01:25:49.890Z,40.10
2023-02-05T01:28:19.143Z,30.20
2023-02-05T01:30:49.518Z,29.30
2023-02-05T01:33:19.400Z,31.60
2023-02-05T01:35:47.395Z,32.00
2023-02-05T01:38:15.971Z,29.20
2023-02-05T01:40:44.183Z,32.10
2023-02-05T01:43:18.087Z,29.40
2023-02-05T01:45:51.072Z,29.80
2023-02-05T01:48:25.106Z,25.60
2023-02-05T01:50:57.388Z,29.30
2023-02-05T01:53:30.073Z,31.20
2023-02-05T01:56:01.564Z,27.20
2023-02-05T01:58:40.844Z,27.00
2023-02-05T02:01:08.866Z,31.70
2023-02-05T02:03:38.640Z,28.70
2023-02-05T02:06:06.885Z,30.10
2023-02-05T02:08:34.975Z,26.00
2023-02-05T02:11:06.609Z,21.80
2023-02-05T02:13:36.972Z,29.30
2023-02-05T02:16:07.955Z,27.70
2023-02-05T02:18:38.204Z,22.00
2023-02-05T02:21:28.827Z,26.40
2023-02-05T02:24:17.198Z,26.20
2023-02-05T02:27:12.781Z,21.70
2023-02-05T02:29:58.830Z,24.10
2023-02-05T02:32:41.319Z,24.00
2023-02-05T02:35:36.780Z,25.00
2023-02-05T02:38:17.141Z,28.60
2023-02-05T02:40:52.248Z,27.00
2023-02-05T02:43:34.583Z,25.00
2023-02-05T02:46:08.317Z,27.60
2023-02-05T02:48:39.939Z,25.80
2023-02-05T02:51:10.227Z,23.30
2023-02-05T02:53:45.262Z,24.80
2023-02-05T02:56:16.509Z,16.40
2023-02-05T03:01:25.744Z,20.50
2023-02-05T03:04:08.567Z,20.80
2023-02-05T03:06:40.119Z,24.50
2023-02-05T03:09:22.328Z,17.00
2023-02-05T03:11:50.362Z,21.40
2023-02-05T03:14:19.685Z,24.90
2023-02-05T03:16:47.930Z,27.30
2023-02-05T03:19:16.599Z,21.60
2023-02-05T03:21:50.535Z,21.80
2023-02-05T03:24:18.625Z,19.30
2023-02-05T03:26:46.639Z,18.00
2023-02-05T03:29:27.392Z,17.60
2023-02-05T03:32:19.434Z,20.40
2023-02-05T03:34:53.776Z,13.90
2023-02-05T03:37:31.419Z,19.20
2023-02-05T03:40:05.133Z,17.40
2023-02-05T03:45:17.933Z,19.30
2023-02-05T03:48:15.956Z,20.70
2023-02-05T03:50:47.891Z,23.10
2023-02-05T03:53:30.945Z,21.90
2023-02-05T03:56:35.547Z,22.00
2023-02-05T03:59:05.821Z,21.60
2023-02-05T04:05:22.925Z,22.70
2023-02-05T04:07:52.469Z,17.60
2023-02-05T04:10:22.378Z,29.50
2023-02-05T04:12:51.516Z,23.10
2023-02-05T04:15:20.321Z,22.00
2023-02-05T04:17:51.585Z,20.50
2023-02-05T04:20:19.941Z,18.60
2023-02-05T04:22:48.303Z,20.00
2023-02-05T04:25:17.165Z,19.00
2023-02-05T04:27:46.407Z,18.90
2023-02-05T04:34:37.904Z,17.10
2023-02-05T04:37:09.765Z,14.00
2023-02-05T04:39:38.045Z,15.70
2023-02-05T04:42:06.098Z,17.50
2023-02-05T04:44:34.340Z,19.60
2023-02-05T04:47:02.357Z,13.40
2023-02-05T04:49:32.586Z,13.40
2023-02-05T04:52:01.161Z,15.00
2023-02-05T04:54:30.019Z,14.30
2023-02-05T04:56:58.120Z,15.00
2023-02-05T04:59:26.475Z,14.20
2023-02-05T05:01:54.510Z,14.10
2023-02-05T05:04:23.151Z,15.70
2023-02-05T05:06:51.131Z,17.70
2023-02-05T05:09:21.077Z,14.40
2023-02-05T05:11:49.189Z,13.30
2023-02-05T05:14:17.133Z,11.60
2023-02-05T05:16:46.803Z,16.70
2023-02-05T05:19:14.818Z,16.50
2023-02-05T05:21:42.944Z,10.80
2023-02-05T05:24:11.189Z,16.30
2023-02-05T05:26:43.875Z,15.90
2023-02-05T05:29:12.754Z,19.20
2023-02-05T05:31:41.737Z,17.40
2023-02-05T05:34:09.918Z,14.20
2023-02-05T05:36:40.237Z,15.20
2023-02-05T05:39:26.961Z,13.30
2023-02-05T05:42:13.451Z,12.10
2023-02-05T05:44:42.474Z,12.60
2023-02-05T05:47:10.459Z,14.60
2023-02-05T05:49:38.449Z,14.60
2023-02-05T05:52:06.390Z,22.00
2023-02-05T05:54:34.383Z,17.20
2023-02-05T05:57:02.490Z,13.00
2023-02-05T05:59:31.230Z,21.20
2023-02-05T06:02:04.285Z,11.30
2023-02-05T06:04:32.419Z,15.40
2023-02-05T06:07:02.376Z,18.70
2023-02-05T06:09:30.618Z,17.00
2023-02-05T06:11:58.752Z,13.80
2023-02-05T06:14:26.883Z,14.50
2023-02-05T06:16:55.991Z,17.90
2023-02-05T06:19:24.241Z,16.30
2023-02-05T06:21:52.526Z,19.00
2023-02-05T06:24:21.467Z,13.40
2023-02-05T06:26:49.559Z,14.70
2023-02-05T06:29:19.110Z,16.10
2023-02-05T06:31:47.541Z,16.80
2023-02-05T06:34:15.581Z,15.10
2023-02-05T06:36:43.724Z,19.20
2023-02-05T06:39:11.802Z,16.20
2023-02-05T06:41:40.082Z,16.00
2023-02-05T06:44:08.240Z,15.10
2023-02-05T06:46:36.472Z,21.00
2023-02-05T06:49:04.601Z,17.30
2023-02-05T06:51:32.948Z,17.30
2023-02-05T06:54:01.457Z,17.20
2023-02-05T06:56:29.596Z,15.50
2023-02-05T06:58:57.601Z,12.10
2023-02-05T07:01:25.813Z,13.80
2023-02-05T07:03:56.242Z,12.70
2023-02-05T07:06:25.298Z,14.00
2023-02-05T07:08:53.792Z,13.70
2023-02-05T07:11:23.648Z,12.60
2023-02-05T07:13:52.605Z,14.50
2023-02-05T07:16:20.944Z,14.90
2023-02-05T07:18:48.914Z,13.90
2023-02-05T07:21:17.527Z,16.40
2023-02-05T07:23:46.225Z,16.40
2023-02-05T07:26:16.532Z,14.80
2023-02-05T07:28:45.612Z,14.50
2023-02-05T07:31:16.494Z,17.90
2023-02-05T07:33:46.723Z,15.30
2023-02-05T07:36:17.762Z,13.30
2023-02-05T07:38:47.906Z,17.70
2023-02-05T07:41:17.718Z,15.50
2023-02-05T07:43:46.253Z,18.60
2023-02-05T07:46:15.313Z,15.00
2023-02-05T07:48:43.479Z,16.60
2023-02-05T07:51:30.113Z,13.90
2023-02-05T07:53:58.291Z,14.50
2023-02-05T07:56:26.462Z,15.60
2023-02-05T07:58:54.835Z,14.50
2023-02-05T08:01:22.885Z,13.70
2023-02-05T08:03:50.986Z,16.50
2023-02-05T08:06:19.007Z,12.40
2023-02-05T08:08:47.044Z,14.30
2023-02-05T08:11:16.498Z,15.20
2023-02-05T08:13:45.836Z,19.70
2023-02-05T08:16:15.945Z,17.30
2023-02-05T08:18:49.245Z,14.10
2023-02-05T08:21:19.780Z,15.10
2023-02-05T08:23:49.301Z,11.10
2023-02-05T08:26:18.743Z,13.70
2023-02-05T08:28:46.853Z,15.80
2023-02-05T08:31:18.904Z,16.60
2023-02-05T08:33:47.968Z,15.10
2023-02-05T08:36:15.985Z,15.40
2023-02-05T08:38:44.100Z,13.20
2023-02-05T08:41:12.895Z,11.70
2023-02-05T08:43:49.689Z,13.50
2023-02-05T08:46:21.075Z,12.40
2023-02-05T08:48:49.586Z,15.00
2023-02-05T08:51:19.752Z,19.30
2023-02-05T08:53:47.967Z,14.10
2023-02-05T08:56:19.233Z,20.20
2023-02-05T08:58:48.652Z,20.40
2023-02-05T09:01:17.617Z,19.50
2023-02-05T09:03:46.396Z,18.00
2023-02-05T09:06:15.931Z,13.20
2023-02-05T09:08:44.082Z,11.20
2023-02-05T09:11:13.547Z,14.70
2023-02-05T09:13:41.799Z,16.70
2023-02-05T09:16:12.850Z,14.20
2023-02-05T09:18:41.209Z,16.90
2023-02-05T09:21:11.024Z,19.80
2023-02-05T09:23:39.372Z,13.90
2023-02-05T09:26:09.420Z,14.50
2023-02-05T09:28:38.694Z,11.50
2023-02-05T09:31:09.225Z,16.70
2023-02-05T09:33:37.897Z,15.20
2023-02-05T09:36:13.032Z,13.30
2023-02-05T09:38:42.036Z,14.10
2023-02-05T09:41:13.279Z,16.80
2023-02-05T09:44:17.203Z,17.70
2023-02-05T09:46:56.546Z,18.80
2023-02-05T09:49:38.747Z,20.90
2023-02-05T09:55:01.447Z,17.80
2023-02-05T09:57:34.341Z,12.20
2023-02-05T10:00:05.654Z,13.60
2023-02-05T10:02:51.010Z,11.80
2023-02-05T10:05:24.972Z,12.40
2023-02-05T10:08:22.913Z,16.30
2023-02-05T10:10:54.321Z,16.40
2023-02-05T10:13:31.444Z,11.60
2023-02-05T10:16:29.838Z,8.60
2023-02-05T10:19:16.656Z,7.60
2023-02-05T10:21:47.865Z,8.60
2023-02-05T10:24:41.364Z,10.10
2023-02-05T10:27:19.160Z,8.10
2023-02-05T10:30:07.117Z,8.10
2023-02-05T10:32:57.642Z,9.80
2023-02-05T10:35:44.438Z,9.80
2023-02-05T10:38:39.427Z,12.00
2023-02-05T10:41:12.335Z,16.10
2023-02-05T10:44:00.292Z,9.90
2023-02-05T10:46:35.720Z,13.20
2023-02-05T10:49:12.507Z,10.50
2023-02-05T10:51:43.769Z,12.00
2023-02-05T10:54:26.429Z,13.10
2023-02-05T10:56:58.955Z,11.30
2023-02-05T10:59:36.570Z,13.50
2023-02-05T11:04:46.008Z,9.20
2023-02-05T11:07:33.042Z,12.20
2023-02-05T11:10:15.594Z,12.70
2023-02-05T11:12:46.823Z,9.60
2023-02-05T11:15:33.705Z,11.30
2023-02-05T11:18:05.527Z,13.30
2023-02-05T11:23:06.647Z,12.70
2023-02-05T11:25:35.563Z,9.30
2023-02-05T11:28:05.792Z,10.40
2023-02-05T11:30:54.304Z,7.80
2023-02-05T11:33:22.824Z,10.70
2023-02-05T11:35:57.028Z,9.30
2023-02-05T11:38:33.538Z,10.30
2023-02-05T11:41:06.864Z,9.00
2023-02-05T11:43:38.334Z,9.40
2023-02-05T11:46:16.493Z,11.60
2023-02-05T11:48:56.775Z,11.00
2023-02-05T11:51:29.770Z,10.60
2023-02-05T11:54:01.362Z,12.90
2023-02-05T11:56:29.621Z,11.40
2023-02-05T11:59:19.403Z,15.70
2023-02-05T12:01:48.410Z,12.30
2023-02-05T12:04:20.523Z,15.10
2023-02-05T12:07:15.483Z,11.70
2023-02-05T12:09:43.730Z,12.90
2023-02-05T12:12:28.878Z,11.70
2023-02-05T12:15:15.625Z,10.40
2023-02-05T12:18:01.855Z,12.50
2023-02-05T12:20:42.883Z,12.10
2023-02-05T12:23:48.196Z,11.60
2023-02-05T12:26:40.636Z,15.60
2023-02-05T12:29:44.163Z,12.70
2023-02-05T12:32:27.680Z,17.40
2023-02-05T12:34:58.919Z,12.80
2023-02-05T12:37:52.183Z,12.10
2023-02-05T12:40:30.046Z,11.40
2023-02-05T12:43:02.862Z,16.60
2023-02-05T12:45:39.273Z,11.00
2023-02-05T12:48:39.063Z,10.80
2023-02-05T12:51:19.827Z,9.30
2023-02-05T12:54:13.142Z,10.20
2023-02-05T12:56:55.241Z,8.70
2023-02-05T13:00:03.509Z,11.60
2023-02-05T13:02:49.893Z,13.60
2023-02-05T13:05:56.492Z,9.80
2023-02-05T13:08:45.575Z,12.50
2023-02-05T13:11:25.441Z,11.20
2023-02-05T13:14:11.913Z,13.50
2023-02-05T13:16:54.156Z,12.40
2023-02-05T13:19:41.135Z,10.80
2023-02-05T13:22:39.418Z,14.40
2023-02-05T13:25:38.942Z,10.90
2023-02-05T13:28:41.088Z,12.30
2023-02-05T13:31:25.116Z,8.10
2023-02-05T13:33:56.717Z,11.30
2023-02-05T13:36:24.806Z,8.10
2023-02-05T13:39:11.563Z,11.00
2023-02-05T13:42:01.124Z,11.00
2023-02-05T13:45:01.461Z,9.30
2023-02-05T13:47:47.627Z,10.60
2023-02-05T13:50:28.188Z,10.10
2023-02-05T13:53:14.453Z,9.90
2023-02-05T13:56:14.378Z,10.60
2023-02-05T13:58:49.605Z,11.90
2023-02-05T14:01:18.244Z,11.80
2023-02-05T14:03:59.536Z,8.30
2023-02-05T14:06:41.159Z,12.20
2023-02-05T14:09:24.752Z,9.90
2023-02-05T14:11:59.291Z,11.20
2023-02-05T14:14:34.926Z,10.40
2023-02-05T14:17:28.861Z,11.20
2023-02-05T14:19:58.960Z,13.20
2023-02-05T14:22:42.480Z,11.20
2023-02-05T14:25:38.132Z,12.20
2023-02-05T14:28:09.013Z,15.70
2023-02-05T14:30:51.947Z,10.50
2023-02-05T14:33:26.269Z,14.80
2023-02-05T14:36:10.860Z,10.80
2023-02-05T14:38:42.194Z,12.60
2023-02-05T14:41:14.648Z,15.70
2023-02-05T14:43:46.737Z,470.40
2023-02-05T14:46:25.535Z,187.80
2023-02-05T14:48:58.240Z,171.20
2023-02-05T14:51:31.479Z,49.90
2023-02-05T14:54:05.336Z,83.30
2023-02-05T14:56:46.791Z,195.80
2023-02-05T14:59:20.940Z,56.30
2023-02-05T15:01:54.267Z,91.80
2023-02-05T15:04:49.630Z,23.50
2023-02-05T15:07:27.721Z,50.40
2023-02-05T15:10:18.437Z,24.30
2023-02-05T15:12:49.674Z,19.50
2023-02-05T15:15:28.006Z,19.40
2023-02-05T15:18:02.615Z,17.50
2023-02-05T15:20:36.060Z,14.10
2023-02-05T15:23:06.477Z,16.30
2023-02-05T15:25:42.666Z,17.10
2023-02-05T15:28:29.613Z,14.90
2023-02-05T15:31:17.473Z,16.10
2023-02-05T15:33:58.770Z,14.00
2023-02-05T15:36:46.279Z,13.30
2023-02-05T15:39:30.440Z,16.70
2023-02-05T15:42:01.554Z,13.90
2023-02-05T15:44:31.979Z,12.60
2023-02-05T15:47:04.722Z,15.00
2023-02-05T15:49:46.076Z,13.70
2023-02-05T15:52:23.336Z,13.90
2023-02-05T15:54:55.562Z,13.30
2023-02-05T15:57:29.756Z,16.30
2023-02-05T16:00:00.853Z,18.60
2023-02-05T16:02:57.530Z,13.30
2023-02-05T16:05:27.500Z,16.30
2023-02-05T16:07:57.563Z,16.40
2023-02-05T16:10:28.995Z,15.70
2023-02-05T16:13:14.341Z,16.40
2023-02-05T16:15:45.472Z,16.50
2023-02-05T16:18:20.516Z,16.60
2023-02-05T16:20:57.632Z,19.20
2023-02-05T16:23:31.909Z,15.90
2023-02-05T16:26:15.896Z,16.80
2023-02-05T16:28:58.811Z,21.90
2023-02-05T16:31:29.977Z,18.30
2023-02-05T16:34:05.710Z,22.80
2023-02-05T16:36:38.897Z,21.10
2023-02-05T16:39:30.125Z,25.10
2023-02-05T16:42:17.542Z,19.90
2023-02-05T16:44:48.710Z,35.30
2023-02-05T16:47:20.205Z,26.80
2023-02-05T16:49:49.728Z,29.20
2023-02-05T16:52:36.460Z,40.40
2023-02-05T16:55:07.652Z,43.50
2023-02-05T16:57:38.942Z,48.10
2023-02-05T17:00:23.952Z,39.20
2023-02-05T17:02:59.107Z,42.30
2023-02-05T17:05:29.366Z,39.90
2023-02-05T17:08:09.150Z,42.80
2023-02-05T17:10:52.912Z,41.30
2023-02-05T17:13:42.516Z,51.90
2023-02-05T17:16:30.941Z,48.30
2023-02-05T17:19:00.957Z,51.90
2023-02-05T17:21:34.515Z,52.20
2023-02-05T17:24:06.380Z,51.90
2023-02-05T17:26:39.535Z,66.80
2023-02-05T17:29:13.928Z,82.70
2023-02-05T17:31:42.305Z,74.60
2023-02-05T17:34:11.810Z,83.40
2023-02-05T17:36:39.832Z,76.20
2023-02-05T17:39:07.988Z,59.80
2023-02-05T17:41:55.977Z,54.30
2023-02-05T17:44:24.357Z,49.30
2023-02-05T17:46:54.395Z,45.10
2023-02-05T17:49:22.778Z,53.60
2023-02-05T17:51:50.949Z,51.80
2023-02-05T17:54:21.858Z,49.40
2023-02-05T17:56:51.051Z,55.50
2023-02-05T17:59:22.418Z,51.50
2023-02-05T18:01:51.871Z,53.10
2023-02-05T18:04:20.373Z,55.00
2023-02-05T18:06:49.996Z,54.80
2023-02-05T18:09:20.478Z,54.60
2023-02-05T18:11:48.773Z,51.80
2023-02-05T18:14:16.929Z,51.90
2023-02-05T18:16:45.614Z,55.50
2023-02-05T18:19:14.083Z,53.60
2023-02-05T18:21:42.506Z,60.40
2023-02-05T18:24:10.542Z,48.50
2023-02-05T18:26:38.626Z,60.20
2023-02-05T18:29:06.737Z,48.70
2023-02-05T18:31:35.376Z,45.80
2023-02-05T18:34:03.575Z,53.50
2023-02-05T18:36:31.652Z,51.40
2023-02-05T18:38:59.794Z,44.60
2023-02-05T18:41:28.943Z,53.30
2023-02-05T18:43:58.433Z,45.00
2023-02-05T18:46:26.626Z,54.30
2023-02-05T18:48:55.790Z,49.40
2023-02-05T18:51:24.182Z,52.20
2023-02-05T18:53:52.313Z,85.60
2023-02-05T18:56:26.671Z,57.30
2023-02-05T18:59:02.443Z,54.40
2023-02-05T19:04:42.396Z,59.30
2023-02-05T19:07:10.467Z,68.60
2023-02-05T19:09:38.468Z,56.00
2023-02-05T19:12:07.011Z,58.20
2023-02-05T19:14:35.091Z,58.30
2023-02-05T19:17:03.291Z,60.60
2023-02-05T19:19:32.040Z,67.00
2023-02-05T19:22:02.127Z,69.10
2023-02-05T19:24:30.436Z,68.20
2023-02-05T19:27:02.097Z,76.10
2023-02-05T19:29:30.717Z,58.90
2023-02-05T19:31:59.070Z,54.90
2023-02-05T19:34:27.963Z,54.40
2023-02-05T19:36:56.138Z,61.20
2023-02-05T19:39:25.302Z,57.50
2023-02-05T19:41:53.486Z,58.60
2023-02-05T19:44:21.544Z,65.60
2023-02-05T19:46:50.510Z,55.60
2023-02-05T19:49:21.057Z,59.40
2023-02-05T19:51:55.296Z,61.30
2023-02-05T19:54:23.709Z,69.70
2023-02-05T19:56:51.973Z,76.20
2023-02-05T19:59:21.440Z,75.10
2023-02-05T20:01:50.058Z,69.10
2023-02-05T20:04:24.948Z,80.20
2023-02-05T20:06:58.878Z,72.70
2023-02-05T20:09:27.790Z,69.90
2023-02-05T20:11:56.865Z,75.50
2023-02-05T20:14:25.170Z,74.10
2023-02-05T20:16:54.154Z,77.00
2023-02-05T20:19:22.898Z,79.30
2023-02-05T20:21:51.189Z,80.00
2023-02-05T20:24:19.275Z,79.60
2023-02-05T20:26:50.284Z,82.50
2023-02-05T20:29:36.867Z,82.80
2023-02-05T20:32:05.585Z,79.70
2023-02-05T20:34:35.959Z,77.60
2023-02-05T20:37:07.438Z,73.70
2023-02-05T20:39:39.679Z,82.30
2023-02-05T20:42:10.700Z,75.90
2023-02-05T20:44:39.410Z,80.60
2023-02-05T20:47:10.690Z,79.20
2023-02-05T20:49:40.272Z,56.10
2023-02-05T20:52:11.902Z,79.30
2023-02-05T20:57:09.602Z,79.20
2023-02-05T20:59:38.799Z,78.70
2023-02-05T21:02:07.365Z,80.70
2023-02-05T21:04:36.727Z,78.60
2023-02-05T21:07:04.954Z,83.50
2023-02-05T21:09:33.339Z,82.50
2023-02-05T21:12:01.501Z,72.60
2023-02-05T21:14:29.697Z,83.90
2023-02-05T21:16:57.677Z,88.30
2023-02-05T21:19:25.676Z,91.10
2023-02-05T21:21:53.907Z,91.30
2023-02-05T21:24:22.067Z,93.60
2023-02-05T21:26:50.358Z,108.00
2023-02-05T21:29:21.026Z,101.10
2023-02-05T21:31:55.910Z,78.60
2023-02-05T21:34:28.085Z,110.10
2023-02-05T21:36:56.651Z,125.20
2023-02-05T21:39:25.758Z,142.00
2023-02-05T21:41:54.536Z,147.70
2023-02-05T21:44:23.061Z,156.70
2023-02-05T21:46:53.354Z,127.10
2023-02-05T21:49:22.269Z,107.00
2023-02-05T21:51:53.573Z,110.00
2023-02-05T21:54:25.596Z,107.10
2023-02-05T21:56:54.551Z,110.50
2023-02-05T21:59:22.936Z,133.50
2023-02-05T22:01:52.080Z,133.50
2023-02-05T22:04:21.495Z,132.20
2023-02-05T22:06:50.220Z,124.50
2023-02-05T22:09:18.492Z,123.20
2023-02-05T22:11:52.606Z,112.70
2023-02-05T22:14:20.578Z,108.70
2023-02-05T22:16:48.715Z,102.10
2023-02-05T22:19:17.019Z,102.30
2023-02-05T22:21:45.409Z,111.10
2023-02-05T22:24:16.566Z,116.70
2023-02-05T22:26:45.796Z,110.80
2023-02-05T22:29:16.657Z,117.20
2023-02-05T22:31:46.623Z,135.70
2023-02-05T22:34:14.623Z,130.40
2023-02-05T22:36:42.852Z,128.50
2023-02-05T22:39:11.239Z,111.30
2023-02-05T22:41:42.684Z,121.10
2023-02-05T22:44:11.657Z,120.80
2023-02-05T22:46:44.583Z,106.50
2023-02-05T22:49:15.524Z,105.40
2023-02-05T22:51:45.290Z,104.00
2023-02-05T22:54:15.404Z,103.60
2023-02-05T22:56:44.508Z,138.30
2023-02-05T22:59:13.195Z,141.50
2023-02-05T23:01:41.378Z,108.80
2023-02-05T23:04:10.284Z,100.40
2023-02-05T23:06:41.079Z,103.20
2023-02-05T23:09:16.338Z,113.80
2023-02-05T23:11:44.832Z,103.10
2023-02-05T23:14:15.056Z,124.70
2023-02-05T23:16:45.744Z,113.50
2023-02-05T23:19:20.250Z,100.90
2023-02-05T23:21:48.980Z,104.60
2023-02-05T23:24:18.082Z,122.20
2023-02-05T23:26:48.659Z,124.70
2023-02-05T23:29:17.401Z,118.10
2023-02-05T23:31:45.759Z,103.20
2023-02-05T23:34:14.155Z,116.50
2023-02-05T23:36:42.237Z,148.10
2023-02-05T23:39:10.625Z,128.10
2023-02-05T23:41:40.288Z,123.20
2023-02-05T23:44:13.123Z,117.80
2023-02-05T23:46:43.186Z,124.70
2023-02-05T23:49:11.737Z,124.60
2023-02-05T23:51:40.407Z,122.60
2023-02-05T23:54:10.254Z,119.20
2023-02-05T23:56:38.315Z,117.70
2023-02-05T23:59:07.617Z,122.70
